Time;durP1;ratioP1;P1;durP2;ratioP2;P2;SDS_P1;SDS_P2;PMS_P1;PMS_P2;Temp;Humidity;BMP_temperature;BMP_pressure;BME280_temperature;BME280_humidity;BME280_pressure;Samples;Min_cycle;Max_cycle;Signal;HPM_P1;HPM_P2
2023/03/01 00:01:24;;;;;;;56.75;31.58;;;154.00;2252.80;;;;;;5073286;28;20105;-75
2023/03/01 00:03:51;;;;;;;55.55;31.05;;;154.00;2252.80;;;;;;5073321;28;20415;-76
2023/03/01 00:06:17;;;;;;;52.72;30.13;;;153.90;2252.80;;;;;;5073123;28;20476;-76
2023/03/01 00:08:43;;;;;;;54.35;29.55;;;153.80;2252.80;;;;;;5085468;28;20025;-75
2023/03/01 00:11:13;;;;;;;;;;;154.00;2252.80;;;;;;5074545;28;20024;-76
2023/03/01 00:13:40;;;;;;;55.50;30.20;;;154.10;2252.80;;;;;;5073974;28;20322;-75
2023/03/01 00:16:08;;;;;;;55.75;30.05;;;154.00;2252.80;;;;;;5072735;28;20045;-76
2023/03/01 00:18:34;;;;;;;55.20;28.75;;;154.00;2252.80;;;;;;5072915;28;20047;-75
2023/03/01 00:20:59;;;;;;;;;;;154.10;2252.80;;;;;;5074247;28;20017;-75
2023/03/01 00:23:25;;;;;;;59.55;30.67;;;154.10;2252.80;;;;;;5072526;28;20348;-75
2023/03/01 00:25:51;;;;;;;;;;;154.10;2252.80;;;;;;5073043;28;20492;-76
2023/03/01 00:28:17;;;;;;;60.97;30.75;;;154.10;2252.80;;;;;;5073104;28;19958;-75
2023/03/01 00:30:43;;;;;;;50.50;28.92;;;154.10;2252.80;;;;;;5089352;28;20036;-76
2023/03/01 00:33:09;;;;;;;54.83;29.38;;;154.10;2252.80;;;;;;5088976;28;20109;-76
2023/03/01 00:35:35;;;;;;;;;;;154.10;2252.80;;;;;;5072727;28;20483;-76
2023/03/01 00:38:01;;;;;;;58.97;30.05;;;154.10;2252.80;;;;;;5072252;28;19915;-76
2023/03/01 00:40:28;;;;;;;58.78;28.88;;;154.10;2252.80;;;;;;5088992;28;20491;-75
2023/03/01 00:42:54;;;;;;;53.80;28.95;;;154.10;2252.80;;;;;;5073325;28;20488;-76
2023/03/01 00:45:20;;;;;;;59.25;30.75;;;154.10;2252.80;;;;;;5074656;28;20036;-76
2023/03/01 00:47:46;;;;;;;;;;;154.10;2252.80;;;;;;5072392;28;20388;-76
2023/03/01 00:50:11;;;;;;;57.47;30.42;;;154.20;2252.80;;;;;;5073170;28;19955;-76
2023/03/01 00:52:37;;;;;;;55.67;28.50;;;154.10;2252.80;;;;;;5072383;28;20118;-76
2023/03/01 00:55:04;;;;;;;50.60;27.52;;;154.10;2252.80;;;;;;5072417;28;20036;-76
2023/03/01 00:57:31;;;;;;;57.95;31.45;;;154.20;2252.80;;;;;;5067565;28;20039;-75
2023/03/01 00:59:57;;;;;;;58.88;31.60;;;154.20;2252.80;;;;;;5088677;28;20043;-76
2023/03/01 01:02:22;;;;;;;;;;;154.20;2252.80;;;;;;5075788;28;20472;-76
2023/03/01 01:04:48;;;;;;;57.17;29.80;;;154.20;2252.80;;;;;;5066660;28;19915;-76
2023/03/01 01:07:14;;;;;;;;;;;154.20;2252.80;;;;;;5072634;28;20115;-75
2023/03/01 01:09:40;;;;;;;53.95;28.65;;;154.50;2252.80;;;;;;5072305;28;19904;-76
2023/03/01 01:12:06;;;;;;;;;;;154.00;2252.80;;;;;;5082265;28;20104;-76
2023/03/01 01:14:32;;;;;;;65.03;31.38;;;154.10;2252.80;;;;;;5066877;28;19908;-76
2023/03/01 01:16:58;;;;;;;;;;;154.10;2252.80;;;;;;5080487;28;20024;-76
2023/03/01 01:19:24;;;;;;;60.05;30.45;;;154.50;2252.80;;;;;;5071841;28;19904;-76
2023/03/01 01:21:50;;;;;;;64.82;32.75;;;154.00;2252.80;;;;;;5073847;28;20020;-76
2023/03/01 01:24:16;;;;;;;;;;;154.00;2252.80;;;;;;5079598;28;20476;-76
2023/03/01 01:26:42;;;;;;;57.92;28.67;;;153.90;2252.80;;;;;;5073010;28;19913;-76
2023/03/01 01:29:08;;;;;;;63.78;29.10;;;153.90;2252.80;;;;;;5071547;28;20020;-75
2023/03/01 01:31:35;;;;;;;;;;;154.00;2252.80;;;;;;5089327;28;20388;-75
2023/03/01 01:34:02;;;;;;;56.47;28.63;;;153.90;2252.80;;;;;;5072672;28;19966;-76
2023/03/01 01:36:28;;;;;;;55.08;29.25;;;153.90;2252.80;;;;;;5088249;28;20492;-75
2023/03/01 01:38:54;;;;;;;;;;;153.90;2252.80;;;;;;5071868;28;20031;-76
2023/03/01 01:41:20;;;;;;;57.88;28.92;;;154.00;2252.80;;;;;;5069989;28;19904;-76
2023/03/01 01:44:07;;;;;;;58.78;29.38;;;154.00;2252.80;;;;;;5071595;28;20495;-76
2023/03/01 01:46:41;;;;;;;61.67;30.35;;;154.00;2252.80;;;;;;5071050;28;20119;-76
2023/03/01 01:49:45;;;;;;;63.83;31.67;;;154.10;2252.80;;;;;;5088248;28;20116;-76
2023/03/01 01:52:20;;;;;;;58.53;30.58;;;154.10;2252.80;;;;;;5072410;28;20029;-76
2023/03/01 01:55:02;;;;;;;63.20;31.20;;;154.00;2252.80;;;;;;5072626;28;20075;-75
2023/03/01 01:57:50;;;;;;;57.70;29.98;;;154.10;2252.80;;;;;;5071479;28;20056;-76
2023/03/01 02:00:23;;;;;;;61.42;30.98;;;154.10;2252.80;;;;;;5065937;28;20103;-76
2023/03/01 02:02:55;;;;;;;57.53;30.27;;;154.10;2252.80;;;;;;5071033;28;20020;-76
2023/03/01 02:05:50;;;;;;;63.30;30.40;;;154.20;2252.80;;;;;;5071169;28;20048;-75
2023/03/01 02:08:18;;;;;;;58.35;31.70;;;154.20;2252.80;;;;;;5066684;28;20028;-76
2023/03/01 02:10:45;;;;;;;61.10;30.42;;;154.10;2252.80;;;;;;5072564;28;20027;-76
2023/03/01 02:13:11;;;;;;;56.60;29.05;;;154.20;2252.80;;;;;;5073076;28;20036;-76
2023/03/01 02:15:39;;;;;;;57.55;31.08;;;154.20;2252.80;;;;;;5076100;28;20047;-76
2023/03/01 02:18:08;;;;;;;56.38;29.48;;;154.20;2252.80;;;;;;5063596;28;20112;-76
2023/03/01 02:20:58;;;;;;;55.58;29.75;;;154.20;2252.80;;;;;;5077067;28;20020;-76
2023/03/01 02:23:25;;;;;;;59.95;31.38;;;154.20;2252.80;;;;;;5075277;28;20086;-74
2023/03/01 02:26:16;;;;;;;61.92;32.40;;;154.20;2252.80;;;;;;5075711;28;20373;-75
2023/03/01 02:28:43;;;;;;;58.25;30.48;;;154.10;2252.80;;;;;;5075477;28;20412;-76
2023/03/01 02:33:58;;;;;;;58.10;30.30;;;154.20;2252.80;;;;;;5066301;28;20043;-76
2023/03/01 02:36:33;;;;;;;58.38;30.92;;;154.20;2252.80;;;;;;5076624;28;20028;-76
2023/03/01 02:39:02;;;;;;;70.93;32.50;;;154.20;2252.80;;;;;;5076846;28;20047;-76
2023/03/01 02:41:33;;;;;;;65.22;33.28;;;154.20;2252.80;;;;;;5057429;28;20068;-76
2023/03/01 02:43:58;;;;;;;61.92;31.63;;;154.20;2252.80;;;;;;5055577;28;20033;-77
2023/03/01 02:46:25;;;;;;;;;;;154.20;2252.80;;;;;;5068381;28;20592;-76
2023/03/01 02:48:53;;;;;;;63.58;32.30;;;154.20;2252.80;;;;;;5072000;28;19909;-76
2023/03/01 02:52:06;;;;;;;61.95;32.05;;;154.20;2252.80;;;;;;5067986;28;20508;-76
2023/03/01 02:54:56;;;;;;;59.33;32.63;;;154.20;2252.80;;;;;;4975353;28;20127;-76
2023/03/01 02:57:23;;;;;;;66.07;33.63;;;154.20;2252.80;;;;;;4978820;28;20092;-76
2023/03/01 02:59:51;;;;;;;57.88;30.70;;;154.20;2252.80;;;;;;4978542;28;20037;-76
2023/03/01 03:02:38;;;;;;;58.45;32.20;;;154.20;2252.80;;;;;;4978580;28;20042;-76
2023/03/01 03:05:10;;;;;;;62.55;31.85;;;154.20;2252.80;;;;;;4975384;28;20027;-76
2023/03/01 03:07:38;;;;;;;61.92;30.98;;;154.20;2252.80;;;;;;4988388;28;20022;-76
2023/03/01 03:10:06;;;;;;;67.28;32.30;;;154.30;2252.80;;;;;;4994757;28;20034;-76
2023/03/01 03:12:32;;;;;;;62.30;31.40;;;154.30;2252.80;;;;;;4978318;28;20556;-76
2023/03/01 03:14:57;;;;;;;;;;;154.20;2252.80;;;;;;4995251;28;20050;-76
2023/03/01 03:17:23;;;;;;;63.38;31.15;;;154.30;2252.80;;;;;;4978379;28;20041;-76
2023/03/01 03:19:48;;;;;;;;;;;154.30;2252.80;;;;;;4995122;28;20114;-75
2023/03/01 03:22:14;;;;;;;58.80;30.45;;;154.30;2252.80;;;;;;4978049;28;19906;-76
2023/03/01 03:24:40;;;;;;;;;;;154.30;2252.80;;;;;;5016100;28;20037;-76
2023/03/01 03:27:06;;;;;;;60.55;30.63;;;154.20;2252.80;;;;;;5070210;28;20336;-76
2023/03/01 03:29:33;;;;;;;71.93;31.70;;;154.20;2252.80;;;;;;5074632;28;20484;-76
2023/03/01 03:31:59;;;;;;;64.68;32.47;;;154.20;2252.80;;;;;;5091243;28;20531;-76
2023/03/01 03:34:25;;;;;;;61.47;31.38;;;154.30;2252.80;;;;;;5073666;28;20072;-76
2023/03/01 03:36:56;;;;;;;;;;;154.30;2252.80;;;;;;5080024;28;20488;-76
2023/03/01 03:39:23;;;;;;;60.67;32.53;;;154.30;2252.80;;;;;;5091372;28;19904;-76
2023/03/01 03:41:49;;;;;;;62.47;31.38;;;154.20;2252.80;;;;;;5073811;28;20037;-76
2023/03/01 03:44:14;;;;;;;;;;;154.20;2252.80;;;;;;5074541;28;20051;-77
2023/03/01 03:46:41;;;;;;;57.75;30.33;;;154.20;2252.80;;;;;;5079300;28;19930;-76
2023/03/01 03:49:07;;;;;;;59.95;31.88;;;154.20;2252.80;;;;;;5074287;28;20020;-76
2023/03/01 03:51:32;;;;;;;;;;;154.10;2252.80;;;;;;5075781;28;20107;-76
2023/03/01 03:53:58;;;;;;;58.72;32.20;;;154.10;2252.80;;;;;;5073741;28;19911;-76
2023/03/01 03:56:25;;;;;;;;;;;154.10;2252.80;;;;;;5074137;28;20036;-76
2023/03/01 03:58:52;;;;;;;48.97;24.48;;;154.10;2252.80;;;;;;5074411;28;19908;-76
2023/03/01 04:01:18;;;;;;;68.38;33.13;;;154.20;2252.80;;;;;;5075358;28;20040;-76
2023/03/01 04:03:46;;;;;;;;;;;154.20;2252.80;;;;;;5074544;28;20162;-76
2023/03/01 04:06:13;;;;;;;56.25;30.83;;;154.20;2252.80;;;;;;5090868;28;19911;-76
2023/03/01 04:08:39;;;;;;;58.55;31.02;;;154.20;2252.80;;;;;;5073998;28;20040;-77
2023/03/01 04:13:52;;;;;;;58.05;32.13;;;154.30;2252.80;;;;;;5075225;28;20043;-77
2023/03/01 04:16:18;;;;;;;61.83;32.47;;;154.30;2252.80;;;;;;5074735;28;20040;-76
2023/03/01 04:18:44;;;;;;;58.47;29.27;;;154.30;2252.80;;;;;;5075089;28;20025;-76
2023/03/01 04:21:11;;;;;;;62.25;30.60;;;154.30;2252.80;;;;;;5074961;28;20025;-76
2023/03/01 04:23:37;;;;;;;64.05;31.02;;;154.30;2252.80;;;;;;5072852;28;20028;-76
2023/03/01 04:26:03;;;;;;;56.08;30.58;;;154.20;2252.80;;;;;;5074789;28;20450;-76
2023/03/01 04:28:30;;;;;;;;;;;154.30;2252.80;;;;;;5074711;28;20024;-76
2023/03/01 04:30:58;;;;;;;61.33;31.45;;;154.30;2252.80;;;;;;5074594;28;19904;-76
2023/03/01 04:33:25;;;;;;;60.63;28.38;;;154.30;2252.80;;;;;;5073411;28;20136;-76
2023/03/01 04:35:51;;;;;;;64.18;31.45;;;154.40;2252.80;;;;;;5090137;28;20033;-76
2023/03/01 04:38:18;;;;;;;61.35;32.33;;;154.40;2252.80;;;;;;5072631;28;20036;-76
2023/03/01 04:40:45;;;;;;;62.63;30.90;;;154.30;2252.80;;;;;;5086501;28;20021;-76
2023/03/01 04:43:14;;;;;;;57.38;29.27;;;154.30;2252.80;;;;;;5089963;28;20062;-76
2023/03/01 04:45:39;;;;;;;61.00;31.00;;;154.30;2252.80;;;;;;5073216;28;20055;-76
2023/03/01 04:48:05;;;;;;;;;;;154.30;2252.80;;;;;;5074836;28;20028;-76
2023/03/01 04:50:32;;;;;;;60.85;29.73;;;154.30;2252.80;;;;;;5061069;28;19912;-76
2023/03/01 04:52:58;;;;;;;59.22;32.63;;;154.20;2252.80;;;;;;5072933;28;20047;-76
2023/03/01 04:55:25;;;;;;;;;;;154.30;2252.80;;;;;;5060085;28;20548;-76
2023/03/01 04:57:51;;;;;;;62.88;32.10;;;154.30;2252.80;;;;;;5074195;28;20340;-76
2023/03/01 05:00:20;;;;;;;;;;;154.30;2252.80;;;;;;5074323;28;20479;-76
2023/03/01 05:02:48;;;;;;;59.08;29.88;;;154.20;2252.80;;;;;;5073958;28;19962;-76
2023/03/01 05:05:15;;;;;;;61.28;30.77;;;154.30;2252.80;;;;;;5073992;28;20473;-76
2023/03/01 05:07:40;;;;;;;53.75;29.77;;;154.30;2252.80;;;;;;5072723;28;20067;-76
2023/03/01 05:10:06;;;;;;;;;;;154.30;2252.80;;;;;;5072919;28;20510;-76
2023/03/01 05:12:32;;;;;;;55.92;29.77;;;154.30;2252.80;;;;;;5089077;28;19961;-76
2023/03/01 05:14:58;;;;;;;;;;;154.40;2252.80;;;;;;5074402;28;20496;-77
2023/03/01 05:17:24;;;;;;;59.20;30.05;;;154.40;2252.80;;;;;;5059200;28;20046;-76
2023/03/01 05:19:50;;;;;;;;;;;154.40;2252.80;;;;;;5089933;28;20470;-76
2023/03/01 05:22:16;;;;;;;61.13;33.00;;;154.40;2252.80;;;;;;5089349;28;20030;-76
2023/03/01 05:24:42;;;;;;;;;;;154.50;2252.80;;;;;;5072886;28;20025;-77
2023/03/01 05:27:07;;;;;;;59.93;31.10;;;154.40;2252.80;;;;;;5088446;28;19905;-76
2023/03/01 05:29:34;;;;;;;;;;;154.40;2252.80;;;;;;5074163;28;20025;-76
2023/03/01 05:32:02;;;;;;;48.72;25.42;;;154.40;2252.80;;;;;;5072255;28;19916;-76
2023/03/01 05:34:33;;;;;;;62.88;34.47;;;154.40;2252.80;;;;;;5071911;28;20131;-76
2023/03/01 05:36:59;;;;;;;67.47;35.08;;;154.50;2252.80;;;;;;5088998;28;20021;-77
2023/03/01 05:39:27;;;;;;;59.92;33.72;;;154.50;2252.80;;;;;;5071431;28;20039;-76
2023/03/01 05:41:54;;;;;;;53.80;29.88;;;154.50;2252.80;;;;;;5073464;28;20024;-76
2023/03/01 05:44:21;;;;;;;62.45;32.78;;;154.50;2252.80;;;;;;5073470;28;20422;-77
2023/03/01 05:46:47;;;;;;;100.38;50.47;;;179.20;2252.80;;;;;;5089095;28;20465;-76
2023/03/01 05:49:14;;;;;;;94.35;47.10;;;179.20;2252.80;;;;;;5071460;28;20017;-76
2023/03/01 05:51:47;;;;;;;76.70;37.83;;;179.30;2252.80;;;;;;5072007;28;20067;-76
2023/03/01 05:54:12;;;;;;;67.03;35.22;;;179.30;2252.80;;;;;;5088852;28;20029;-76
2023/03/01 05:56:38;;;;;;;;;;;179.30;2252.80;;;;;;5073497;28;20032;-76
2023/03/01 05:59:05;;;;;;;68.15;34.63;;;179.30;2252.80;;;;;;5073444;28;19999;-76
2023/03/01 06:01:32;;;;;;;53.88;30.60;;;179.30;2252.80;;;;;;5073189;28;20101;-76
2023/03/01 06:03:57;;;;;;;61.17;31.48;;;179.20;2252.80;;;;;;5071840;28;20028;-76
2023/03/01 06:06:23;;;;;;;;;;;179.20;2252.80;;;;;;5088708;28;20025;-76
2023/03/01 06:08:50;;;;;;;58.83;31.35;;;179.20;2252.80;;;;;;5088906;28;19912;-76
2023/03/01 06:11:15;;;;;;;67.18;35.35;;;179.20;2252.80;;;;;;5071247;28;20029;-76
2023/03/01 06:13:44;;;;;;;;;;;154.50;2252.80;;;;;;5072380;28;20089;-76
2023/03/01 06:16:10;;;;;;;74.90;36.38;;;179.20;2252.80;;;;;;5088678;28;19917;-76
2023/03/01 06:18:36;;;;;;;;;;;154.50;2252.80;;;;;;5072345;28;20021;-76
2023/03/01 06:21:02;;;;;;;77.83;36.57;;;154.50;2252.80;;;;;;5071998;28;19950;-76
2023/03/01 06:23:28;;;;;;;75.07;36.95;;;179.20;2252.80;;;;;;5081013;28;20473;-76
2023/03/01 06:25:53;;;;;;;;;;;179.20;2252.80;;;;;;5073222;28;20035;-76
2023/03/01 06:28:19;;;;;;;63.78;32.80;;;154.50;2252.80;;;;;;5071930;28;20271;-75
2023/03/01 06:30:46;;;;;;;;;;;154.50;2252.80;;;;;;5075076;28;20025;-76
2023/03/01 06:33:11;;;;;;;57.58;28.65;;;179.20;2252.80;;;;;;5088251;28;19966;-76
2023/03/01 06:35:37;;;;;;;;;;;154.50;2252.80;;;;;;5067375;28;20669;-76
2023/03/01 06:38:04;;;;;;;62.65;31.35;;;154.50;2252.80;;;;;;5069453;28;19915;-75
2023/03/01 06:40:31;;;;;;;62.65;32.38;;;154.40;2252.80;;;;;;5070595;28;20377;-76
2023/03/01 06:42:57;;;;;;;62.83;33.58;;;154.40;2252.80;;;;;;5082095;28;20036;-77
2023/03/01 06:45:24;;;;;;;58.03;32.83;;;154.50;2252.80;;;;;;5071427;28;20024;-77
2023/03/01 06:47:50;;;;;;;60.22;32.30;;;154.50;2252.80;;;;;;5087239;28;20033;-78
2023/03/01 06:50:17;;;;;;;63.60;32.38;;;154.50;2252.80;;;;;;5071589;28;20032;-78
2023/03/01 06:52:44;;;;;;;61.92;31.95;;;154.50;2252.80;;;;;;5072529;28;20048;-82
2023/03/01 06:55:10;;;;;;;56.40;34.03;;;154.50;2252.80;;;;;;5069533;28;20113;-82
2023/03/01 06:57:36;;;;;;;61.17;33.78;;;179.30;2252.80;;;;;;5076915;28;20025;-87
2023/03/01 07:00:03;;;;;;;;;;;154.50;2252.80;;;;;;5069691;28;20048;-82
2023/03/01 07:02:28;;;;;;;62.85;36.00;;;154.50;2252.80;;;;;;5075257;28;19904;-87
2023/03/01 07:04:54;;;;;;;;;;;154.50;2252.80;;;;;;5072148;28;20055;-82
2023/03/01 07:07:20;;;;;;;66.90;33.42;;;154.50;2252.80;;;;;;5091827;28;19905;-85
2023/03/01 07:09:46;;;;;;;;;;;154.50;2252.80;;;;;;5077388;28;20785;-82
2023/03/01 07:12:11;;;;;;;63.20;30.92;;;179.20;2252.80;;;;;;5075578;28;19912;-80
2023/03/01 07:14:37;;;;;;;;;;;179.20;2252.80;;;;;;5076657;28;20509;-85
2023/03/01 07:17:03;;;;;;;59.28;30.35;;;179.20;2252.80;;;;;;5075217;28;20275;-79
2023/03/01 07:19:28;;;;;;;;;;;179.20;2252.80;;;;;;5092478;28;20074;-79
2023/03/01 07:21:55;;;;;;;60.20;31.27;;;179.20;2252.80;;;;;;5075386;28;19904;-77
2023/03/01 07:24:21;;;;;;;58.92;31.13;;;179.20;2252.80;;;;;;5091513;28;20052;-78
2023/03/01 07:26:50;;;;;;;;;;;179.20;2252.80;;;;;;5072129;28;20027;-87
2023/03/01 07:29:17;;;;;;;66.25;32.85;;;179.20;2252.80;;;;;;5075160;28;19905;-83
2023/03/01 07:31:42;;;;;;;68.70;32.83;;;179.20;2252.80;;;;;;5075288;28;20124;-82
2023/03/01 07:34:08;;;;;;;;;;;179.20;2252.80;;;;;;5080226;28;20453;-81
2023/03/01 07:36:34;;;;;;;61.47;32.15;;;179.20;2252.80;;;;;;5086477;28;19912;-78
2023/03/01 07:39:02;;;;;;;;;;;179.20;2252.80;;;;;;5074445;28;20017;-78
2023/03/01 07:41:27;;;;;;;65.53;32.65;;;179.20;2252.80;;;;;;5079697;28;19904;-79
2023/03/01 07:43:53;;;;;;;;;;;179.30;2252.80;;;;;;5070089;28;20039;-78
2023/03/01 07:46:19;;;;;;;56.80;31.02;;;179.20;2252.80;;;;;;5074462;28;19916;-78
2023/03/01 07:48:44;;;;;;;;;;;179.20;2252.80;;;;;;5079081;28;20020;-78
2023/03/01 07:51:10;;;;;;;55.42;30.70;;;179.20;2252.80;;;;;;5074466;28;20371;-79
2023/03/01 07:53:36;;;;;;;69.90;32.53;;;179.30;2252.80;;;;;;5076465;28;20028;-78
2023/03/01 07:56:09;;;;;;;;;;;179.40;2252.80;;;;;;5074433;28;20077;-78
2023/03/01 07:58:36;;;;;;;63.15;31.27;;;179.40;2252.80;;;;;;5063051;28;19911;-78
2023/03/01 08:01:06;;;;;;;63.38;33.17;;;179.40;2252.80;;;;;;5076818;28;20029;-78
2023/03/01 08:03:33;;;;;;;60.55;33.40;;;179.40;2252.80;;;;;;5075088;28;20111;-79
2023/03/01 08:06:00;;;;;;;60.15;34.53;;;179.50;2252.80;;;;;;5074323;28;20109;-78
2023/03/01 08:08:26;;;;;;;59.03;32.35;;;179.50;2252.80;;;;;;5089914;28;20031;-83
2023/03/01 08:10:52;;;;;;;;;;;179.60;2252.80;;;;;;5074050;28;20020;-78
2023/03/01 08:13:22;;;;;;;61.47;31.42;;;179.60;2252.80;;;;;;5071956;28;19958;-78
2023/03/01 08:15:48;;;;;;;64.75;34.10;;;179.60;2252.80;;;;;;5079917;28;20075;-77
2023/03/01 08:18:17;;;;;;;70.32;34.60;;;179.50;2252.80;;;;;;5067592;28;20074;-77
2023/03/01 08:20:42;;;;;;;67.50;34.58;;;179.60;2252.80;;;;;;5074182;28;20020;-75
2023/03/01 08:23:08;;;;;;;;;;;179.60;2252.80;;;;;;5074446;28;20066;-77
2023/03/01 08:25:33;;;;;;;61.17;32.05;;;179.60;2252.80;;;;;;5074046;28;19989;-78
2023/03/01 08:27:59;;;;;;;;;;;179.60;2252.80;;;;;;5073498;28;20047;-79
2023/03/01 08:30:25;;;;;;;65.40;33.92;;;179.60;2252.80;;;;;;5074392;28;19957;-78
2023/03/01 08:32:50;;;;;;;;;;;179.60;2252.80;;;;;;5074305;28;20055;-81
2023/03/01 08:35:16;;;;;;;60.20;33.03;;;179.60;2252.80;;;;;;5074494;28;19912;-80
2023/03/01 08:37:42;;;;;;;;;;;179.50;2252.80;;;;;;5074121;28;20385;-84
2023/03/01 08:40:09;;;;;;;57.40;33.10;;;179.60;2252.80;;;;;;5073387;28;19913;-84
2023/03/01 08:42:36;;;;;;;52.97;30.42;;;179.70;2252.80;;;;;;5073864;28;20047;-84
2023/03/01 08:45:05;;;;;;;61.90;31.48;;;179.80;2252.80;;;;;;5074472;28;20028;-80
2023/03/01 08:47:30;;;;;;;66.38;32.67;;;179.70;2252.80;;;;;;5073553;28;20032;-82
2023/03/01 08:49:56;;;;;;;;;;;179.90;2252.80;;;;;;5074605;28;20020;-81
2023/03/01 08:52:22;;;;;;;57.88;30.05;;;179.90;2252.80;;;;;;5073494;28;19912;-81
2023/03/01 08:54:48;;;;;;;;;;;179.90;2252.80;;;;;;5081543;28;20020;-81
2023/03/01 08:57:14;;;;;;;65.72;32.95;;;179.90;2252.80;;;;;;5074002;28;19912;-84
2023/03/01 08:59:40;;;;;;;;;;;180.00;2252.80;;;;;;5074021;28;20033;-83
2023/03/01 09:02:12;;;;;;;60.40;31.50;;;180.10;2252.80;;;;;;5074066;28;20407;-84
2023/03/01 09:04:39;;;;;;;59.45;31.50;;;180.00;2252.80;;;;;;5070046;28;20103;-79
2023/03/01 09:07:04;;;;;;;61.00;32.25;;;180.00;2252.80;;;;;;5073870;28;20033;-78
2023/03/01 09:09:30;;;;;;;;;;;180.10;2252.80;;;;;;5072951;28;20023;-79
2023/03/01 09:11:55;;;;;;;58.53;30.92;;;180.10;2252.80;;;;;;5072096;28;20389;-77
2023/03/01 09:14:21;;;;;;;58.78;30.90;;;180.10;2252.80;;;;;;5072024;28;20079;-76
2023/03/01 09:16:47;;;;;;;;;;;204.80;2252.80;;;;;;5064377;28;20493;-77
2023/03/01 09:19:12;;;;;;;54.70;30.92;;;180.10;2252.80;;;;;;5073040;28;20356;-76
2023/03/01 09:21:38;;;;;;;;;;;180.10;2252.80;;;;;;5072229;28;20039;-77
2023/03/01 09:24:04;;;;;;;62.35;31.58;;;180.10;2252.80;;;;;;5071806;28;19958;-80
2023/03/01 09:26:29;;;;;;;;;;;204.80;2252.80;;;;;;5084132;28;20056;-81
2023/03/01 09:28:56;;;;;;;56.25;29.95;;;204.80;2252.80;;;;;;5071113;28;19958;-82
2023/03/01 09:31:23;;;;;;;61.22;33.00;;;204.80;2252.80;;;;;;5072086;28;20108;-83
2023/03/01 09:33:52;;;;;;;57.08;31.83;;;204.90;2252.80;;;;;;5086344;28;20025;-77
2023/03/01 09:36:20;;;;;;;57.67;30.67;;;204.90;2252.80;;;;;;5073154;28;20048;-78
2023/03/01 09:38:48;;;;;;;56.45;31.30;;;205.00;2252.80;;;;;;5071168;28;20128;-78
2023/03/01 09:41:34;;;;;;;59.30;32.95;;;205.00;2252.80;;;;;;5070283;28;20067;-83
2023/03/01 09:44:10;;;;;;;56.58;32.20;;;205.00;2252.80;;;;;;5088124;28;20119;-80
2023/03/01 09:46:42;;;;;;;56.80;33.05;;;204.90;2252.80;;;;;;5067668;28;20024;-80
2023/03/01 09:49:21;;;;;;;56.80;32.60;;;205.00;2252.80;;;;;;5088872;28;20027;-79
2023/03/01 09:51:57;;;;;;;62.45;34.75;;;205.10;2252.80;;;;;;5086837;28;20025;-79
2023/03/01 09:54:23;;;;;;;54.22;28.23;;;205.10;2252.80;;;;;;5071294;28;20024;-77
2023/03/01 09:57:42;;;;;;;58.65;31.65;;;205.20;2252.80;;;;;;5075307;28;20050;-79
2023/03/01 10:00:32;;;;;;;56.42;30.02;;;205.20;2252.80;;;;;;5012279;28;20029;-80
2023/03/01 10:03:20;;;;;;;55.55;31.33;;;205.20;2252.80;;;;;;5015220;28;20029;-79
2023/03/01 10:06:08;;;;;;;48.92;27.45;;;205.20;2252.80;;;;;;5011588;28;20597;-79
2023/03/01 10:08:58;;;;;;;49.40;28.30;;;205.30;2252.80;;;;;;5029636;28;20030;-76
2023/03/01 10:11:37;;;;;;;45.75;27.88;;;205.40;2252.80;;;;;;5006823;28;20029;-79
2023/03/01 10:14:41;;;;;;;48.55;27.77;;;205.30;2252.80;;;;;;5025857;28;20030;-78
2023/03/01 10:17:22;;;;;;;48.45;27.60;;;205.40;2252.80;;;;;;5006639;28;20140;-78
2023/03/01 10:19:48;;;;;;;47.00;27.00;;;205.40;2252.80;;;;;;5001558;28;20021;-82
2023/03/01 10:22:14;;;;;;;;;;;205.40;2252.80;;;;;;5009900;28;20034;-79
2023/03/01 10:24:40;;;;;;;43.40;25.27;;;205.50;2252.80;;;;;;5021271;28;19944;-79
2023/03/01 10:27:19;;;;;;;47.63;27.15;;;205.40;2252.80;;;;;;5003621;28;20111;-79
2023/03/01 10:30:16;;;;;;;60.38;33.28;;;205.70;2252.80;;;;;;5030967;28;20026;-78
2023/03/01 10:32:45;;;;;;;58.05;31.55;;;205.60;2252.80;;;;;;5085797;28;20049;-78
2023/03/01 10:35:29;;;;;;;51.10;29.50;;;205.60;2252.80;;;;;;5067858;28;20665;-83
2023/03/01 10:38:13;;;;;;;50.13;29.80;;;205.70;2252.80;;;;;;5078450;28;20042;-80
2023/03/01 10:40:58;;;;;;;46.42;27.45;;;205.70;2252.80;;;;;;5072723;28;20033;-79
2023/03/01 10:43:32;;;;;;;43.42;26.88;;;205.70;2252.80;;;;;;5088591;28;20064;-82
2023/03/01 10:45:58;;;;;;;47.75;26.92;;;205.70;2252.80;;;;;;5091622;28;20503;-82
2023/03/01 10:48:26;;;;;;;;;;;230.40;2252.80;;;;;;5092771;28;20020;-89
2023/03/01 10:51:07;;;;;;;42.53;25.60;;;230.50;2252.80;;;;;;5073032;28;19931;-79
2023/03/01 10:53:43;;;;;;;41.42;24.25;;;230.90;2252.80;;;;;;5073557;28;20064;-80
2023/03/01 10:56:13;;;;;;;32.60;18.63;;;256.10;2252.80;;;;;;5069725;28;20029;-78
2023/03/01 10:58:40;;;;;;;34.08;21.45;;;256.50;2252.80;;;;;;5073854;28;20510;-88
2023/03/01 11:01:25;;;;;;;32.30;19.45;;;256.60;2252.80;;;;;;5076385;28;20050;-84
2023/03/01 11:04:06;;;;;;;37.60;21.55;;;256.50;2252.80;;;;;;5076345;28;20021;-81
2023/03/01 11:06:34;;;;;;;29.42;18.88;;;256.40;2252.80;;;;;;5073934;28;20028;-85
2023/03/01 11:09:23;;;;;;;33.20;19.70;;;256.30;2252.80;;;;;;5083641;28;20016;-90
2023/03/01 11:11:54;;;;;;;30.27;17.83;;;256.40;2252.80;;;;;;5075258;28;20024;-82
2023/03/01 11:14:25;;;;;;;27.35;17.35;;;256.40;2252.80;;;;;;5073509;28;20024;-81
2023/03/01 11:17:15;;;;;;;33.90;18.75;;;256.40;2252.80;;;;;;5072442;28;20090;-82
2023/03/01 11:19:41;;;;;;;27.25;17.83;;;256.40;2252.80;;;;;;5081726;28;20025;-80
2023/03/01 11:22:16;;;;;;;;;;;256.40;2252.80;;;;;;5075666;28;20021;-91
2023/03/01 11:24:54;;;;;;;29.05;18.48;;;256.40;2252.80;;;;;;5074212;28;19905;-77
2023/03/01 11:27:32;;;;;;;31.65;17.27;;;256.40;2252.80;;;;;;5070961;28;20499;-80
2023/03/01 11:30:06;;;;;;;33.33;19.75;;;256.40;2252.80;;;;;;5072982;28;20112;-84
2023/03/01 11:32:43;;;;;;;30.80;17.50;;;256.40;2252.80;;;;;;5068651;28;20138;-82
2023/03/01 11:35:24;;;;;;;31.08;18.70;;;256.40;2252.80;;;;;;5076061;28;20036;-80
2023/03/01 11:37:49;;;;;;;29.20;18.50;;;256.50;2252.80;;;;;;5069667;28;20107;-83
2023/03/01 11:40:30;;;;;;;29.63;19.60;;;256.50;2252.80;;;;;;5086392;28;20111;-78
2023/03/01 11:43:18;;;;;;;28.92;18.45;;;256.50;2252.80;;;;;;5067535;28;20032;-77
2023/03/01 11:46:17;;;;;;;28.70;18.75;;;256.40;2252.80;;;;;;5074462;28;20484;-78
2023/03/01 11:48:58;;;;;;;28.75;18.58;;;256.40;2252.80;;;;;;5069390;28;20028;-77
2023/03/01 11:51:52;;;;;;;27.95;18.38;;;256.50;2252.80;;;;;;5074802;28;20491;-85
2023/03/01 11:54:20;;;;;;;29.75;17.75;;;256.50;2252.80;;;;;;5070297;28;20031;-78
2023/03/01 11:57:06;;;;;;;26.38;16.05;;;256.40;2252.80;;;;;;5077964;28;20036;-79
2023/03/01 11:59:56;;;;;;;26.40;17.20;;;256.40;2252.80;;;;;;5073222;28;20145;-76
2023/03/01 12:02:25;;;;;;;47.42;30.02;;;256.40;2252.80;;;;;;5068680;28;20040;-82
2023/03/01 12:05:14;;;;;;;42.10;23.48;;;256.40;2252.80;;;;;;5077676;28;20024;-81
2023/03/01 12:08:19;;;;;;;38.08;21.10;;;256.40;2252.80;;;;;;5075691;28;20038;-80
2023/03/01 12:11:03;;;;;;;37.03;22.08;;;256.50;2252.80;;;;;;5072053;28;20051;-74
2023/03/01 12:14:17;;;;;;;30.88;18.40;;;256.50;2252.80;;;;;;5073969;28;20431;-81
2023/03/01 12:17:09;;;;;;;26.48;15.48;;;256.50;2252.80;;;;;;4949431;28;20043;-78
2023/03/01 12:20:10;;;;;;;30.85;17.27;;;256.40;2252.80;;;;;;4973016;28;20105;-79
2023/03/01 12:22:42;;;;;;;26.88;16.00;;;256.50;2252.80;;;;;;4952732;28;20034;-82
2023/03/01 12:25:31;;;;;;;29.92;17.23;;;256.60;2252.80;;;;;;4974248;28;20480;-76
2023/03/01 12:28:04;;;;;;;26.27;16.00;;;256.60;2252.80;;;;;;4960061;28;20031;-79
2023/03/01 12:30:30;;;;;;;26.35;17.42;;;256.60;2252.80;;;;;;4958451;28;20031;-80
2023/03/01 12:33:10;;;;;;;32.25;20.63;;;256.60;2252.80;;;;;;4976141;28;20428;-77
2023/03/01 12:35:50;;;;;;;26.50;17.25;;;256.70;2252.80;;;;;;4980153;28;20046;-84
2023/03/01 12:38:34;;;;;;;30.38;17.13;;;256.90;2252.80;;;;;;4975783;28;20085;-78
2023/03/01 12:41:03;;;;;;;34.90;19.73;;;256.90;2252.80;;;;;;4974796;28;20125;-80